sensor_id;sensor_type;location;lat;lon;timestamp;temperature;humidity
23769;DHT22;12064;50.890;5.424;2023-11-22T00:01:35;16.10;99.90
23769;DHT22;12064;50.890;5.424;2023-11-22T00:10:27;16.10;99.90
23769;DHT22;12064;50.890;5.424;2023-11-22T00:19:18;16.10;99.90
23769;DHT22;12064;50.890;5.424;2023-11-22T00:28:13;16.10;99.90
23769;DHT22;12064;50.890;5.424;2023-11-22T00:37:08;16.10;99.90
23769;DHT22;12064;50.890;5.424;2023-11-22T00:45:58;16.10;99.90
23769;DHT22;12064;50.890;5.424;2023-11-22T00:54:53;16.10;99.90
23769;DHT22;12064;50.890;5.424;2023-11-22T01:03:44;16.00;99.90
23769;DHT22;12064;50.890;5.424;2023-11-22T01:12:35;16.00;99.90
23769;DHT22;12064;50.890;5.424;2023-11-22T01:21:26;16.00;99.90
23769;DHT22;12064;50.890;5.424;2023-11-22T01:30:17;16.00;99.90
23769;DHT22;12064;50.890;5.424;2023-11-22T01:39:10;15.90;99.90
23769;DHT22;12064;50.890;5.424;2023-11-22T01:48:01;15.90;99.90
23769;DHT22;12064;50.890;5.424;2023-11-22T01:56:51;15.90;99.90
23769;DHT22;12064;50.890;5.424;2023-11-22T02:05:43;15.90;99.90
23769;DHT22;12064;50.890;5.424;2023-11-22T02:14:34;15.90;99.90
23769;DHT22;12064;50.890;5.424;2023-11-22T02:23:28;15.90;99.90
23769;DHT22;12064;50.890;5.424;2023-11-22T02:32:19;15.90;99.90
23769;DHT22;12064;50.890;5.424;2023-11-22T02:41:09;15.90;99.90
23769;DHT22;12064;50.890;5.424;2023-11-22T02:50:04;15.80;99.90
23769;DHT22;12064;50.890;5.424;2023-11-22T02:58:55;15.80;99.90
23769;DHT22;12064;50.890;5.424;2023-11-22T03:07:49;15.80;99.90
23769;DHT22;12064;50.890;5.424;2023-11-22T03:16:41;15.80;99.90
23769;DHT22;12064;50.890;5.424;2023-11-22T03:25:33;15.80;99.90
23769;DHT22;12064;50.890;5.424;2023-11-22T03:34:23;15.80;99.90
23769;DHT22;12064;50.890;5.424;2023-11-22T03:43:16;15.80;99.90
23769;DHT22;12064;50.890;5.424;2023-11-22T03:52:07;15.80;99.90
23769;DHT22;12064;50.890;5.424;2023-11-22T04:00:58;15.70;99.90
23769;DHT22;12064;50.890;5.424;2023-11-22T04:09:53;15.70;99.90
23769;DHT22;12064;50.890;5.424;2023-11-22T04:18:44;15.70;99.90
23769;DHT22;12064;50.890;5.424;2023-11-22T04:27:35;15.70;99.90
23769;DHT22;12064;50.890;5.424;2023-11-22T04:36:25;15.70;99.90
23769;DHT22;12064;50.890;5.424;2023-11-22T04:45:16;15.70;99.90
23769;DHT22;12064;50.890;5.424;2023-11-22T04:54:07;15.70;99.90
23769;DHT22;12064;50.890;5.424;2023-11-22T05:02:57;15.60;99.90
23769;DHT22;12064;50.890;5.424;2023-11-22T05:11:48;15.70;99.90
23769;DHT22;12064;50.890;5.424;2023-11-22T05:20:42;15.70;99.90
23769;DHT22;12064;50.890;5.424;2023-11-22T05:29:36;15.70;99.90
23769;DHT22;12064;50.890;5.424;2023-11-22T05:38:27;15.70;99.90
23769;DHT22;12064;50.890;5.424;2023-11-22T05:47:17;15.70;99.90
23769;DHT22;12064;50.890;5.424;2023-11-22T05:56:10;15.70;99.90
23769;DHT22;12064;50.890;5.424;2023-11-22T06:05:01;15.60;99.90
23769;DHT22;12064;50.890;5.424;2023-11-22T06:13:52;15.70;99.90
23769;DHT22;12064;50.890;5.424;2023-11-22T06:22:45;15.70;99.90
23769;DHT22;12064;50.890;5.424;2023-11-22T06:31:36;15.70;99.90
23769;DHT22;12064;50.890;5.424;2023-11-22T06:40:27;15.60;99.90
23769;DHT22;12064;50.890;5.424;2023-11-22T06:49:20;15.60;99.90
23769;DHT22;12064;50.890;5.424;2023-11-22T06:58:11;15.60;99.90
23769;DHT22;12064;50.890;5.424;2023-11-22T07:07:03;15.60;99.90
23769;DHT22;12064;50.890;5.424;2023-11-22T07:15:54;15.60;99.90
23769;DHT22;12064;50.890;5.424;2023-11-22T07:24:46;15.60;99.90
23769;DHT22;12064;50.890;5.424;2023-11-22T07:33:38;15.60;99.90
23769;DHT22;12064;50.890;5.424;2023-11-22T07:42:32;15.60;99.90
23769;DHT22;12064;50.890;5.424;2023-11-22T07:51:23;15.60;99.90
23769;DHT22;12064;50.890;5.424;2023-11-22T08:00:15;15.50;99.90
23769;DHT22;12064;50.890;5.424;2023-11-22T08:09:09;15.60;99.90
23769;DHT22;12064;50.890;5.424;2023-11-22T08:18:02;15.60;99.90
23769;DHT22;12064;50.890;5.424;2023-11-22T08:26:56;15.60;99.90
23769;DHT22;12064;50.890;5.424;2023-11-22T08:35:48;15.60;99.90
23769;DHT22;12064;50.890;5.424;2023-11-22T08:44:42;15.60;99.90
23769;DHT22;12064;50.890;5.424;2023-11-22T08:53:33;15.60;99.90
23769;DHT22;12064;50.890;5.424;2023-11-22T09:02:27;15.60;99.90
23769;DHT22;12064;50.890;5.424;2023-11-22T09:11:18;15.60;99.90
23769;DHT22;12064;50.890;5.424;2023-11-22T09:20:13;15.60;99.90
23769;DHT22;12064;50.890;5.424;2023-11-22T09:29:04;15.60;99.90
23769;DHT22;12064;50.890;5.424;2023-11-22T09:37:55;15.50;99.90
23769;DHT22;12064;50.890;5.424;2023-11-22T09:46:48;15.60;99.90
23769;DHT22;12064;50.890;5.424;2023-11-22T09:55:40;15.60;99.90
23769;DHT22;12064;50.890;5.424;2023-11-22T10:04:33;15.60;99.90
23769;DHT22;12064;50.890;5.424;2023-11-22T10:13:25;15.60;99.90
23769;DHT22;12064;50.890;5.424;2023-11-22T10:22:19;15.60;99.90
23769;DHT22;12064;50.890;5.424;2023-11-22T10:31:12;15.60;99.90
23769;DHT22;12064;50.890;5.424;2023-11-22T10:40:04;15.60;99.90
23769;DHT22;12064;50.890;5.424;2023-11-22T10:49:00;15.70;99.90
23769;DHT22;12064;50.890;5.424;2023-11-22T10:57:51;15.70;99.90
23769;DHT22;12064;50.890;5.424;2023-11-22T11:06:44;15.80;99.90
23769;DHT22;12064;50.890;5.424;2023-11-22T11:15:41;15.80;99.90
23769;DHT22;12064;50.890;5.424;2023-11-22T11:24:40;15.80;99.90
23769;DHT22;12064;50.890;5.424;2023-11-22T11:33:34;15.90;99.90
23769;DHT22;12064;50.890;5.424;2023-11-22T11:42:25;15.90;99.90
23769;DHT22;12064;50.890;5.424;2023-11-22T11:51:22;16.00;96.00
23769;DHT22;12064;50.890;5.424;2023-11-22T12:00:14;16.00;99.90
23769;DHT22;12064;50.890;5.424;2023-11-22T12:09:04;16.00;99.90
23769;DHT22;12064;50.890;5.424;2023-11-22T12:17:55;15.90;99.90
23769;DHT22;12064;50.890;5.424;2023-11-22T12:26:47;16.00;99.90
23769;DHT22;12064;50.890;5.424;2023-11-22T12:35:42;16.00;99.90
23769;DHT22;12064;50.890;5.424;2023-11-22T12:44:48;16.00;99.40
23769;DHT22;12064;50.890;5.424;2023-11-22T12:53:40;16.00;96.70
23769;DHT22;12064;50.890;5.424;2023-11-22T13:02:31;16.00;95.70
23769;DHT22;12064;50.890;5.424;2023-11-22T13:11:22;16.00;99.90
23769;DHT22;12064;50.890;5.424;2023-11-22T13:20:12;16.00;99.90
23769;DHT22;12064;50.890;5.424;2023-11-22T13:29:04;16.00;99.90
23769;DHT22;12064;50.890;5.424;2023-11-22T13:37:58;15.90;90.70
23769;DHT22;12064;50.890;5.424;2023-11-22T13:46:49;16.00;99.90
23769;DHT22;12064;50.890;5.424;2023-11-22T13:55:40;16.00;99.90
23769;DHT22;12064;50.890;5.424;2023-11-22T14:04:31;16.10;99.90
23769;DHT22;12064;50.890;5.424;2023-11-22T14:13:21;16.10;99.90
23769;DHT22;12064;50.890;5.424;2023-11-22T14:22:15;16.10;99.90
23769;DHT22;12064;50.890;5.424;2023-11-22T14:31:08;16.10;99.90
23769;DHT22;12064;50.890;5.424;2023-11-22T14:39:59;16.10;99.90
23769;DHT22;12064;50.890;5.424;2023-11-22T14:48:50;16.10;99.90
23769;DHT22;12064;50.890;5.424;2023-11-22T14:57:40;16.20;99.90
23769;DHT22;12064;50.890;5.424;2023-11-22T15:06:34;16.10;99.90
23769;DHT22;12064;50.890;5.424;2023-11-22T15:15:28;16.10;99.90
23769;DHT22;12064;50.890;5.424;2023-11-22T15:24:19;16.10;99.90
23769;DHT22;12064;50.890;5.424;2023-11-22T15:33:11;16.10;99.90
23769;DHT22;12064;50.890;5.424;2023-11-22T15:42:04;16.10;99.90
23769;DHT22;12064;50.890;5.424;2023-11-22T15:50:58;16.10;99.90
23769;DHT22;12064;50.890;5.424;2023-11-22T15:59:49;16.10;99.90
23769;DHT22;12064;50.890;5.424;2023-11-22T16:08:43;16.10;99.90
23769;DHT22;12064;50.890;5.424;2023-11-22T16:17:36;16.10;99.90
23769;DHT22;12064;50.890;5.424;2023-11-22T16:26:27;16.10;99.90
23769;DHT22;12064;50.890;5.424;2023-11-22T16:35:17;16.10;99.90
23769;DHT22;12064;50.890;5.424;2023-11-22T16:44:08;16.10;99.90
23769;DHT22;12064;50.890;5.424;2023-11-22T16:53:00;16.10;99.90
23769;DHT22;12064;50.890;5.424;2023-11-22T17:01:53;16.10;99.90
23769;DHT22;12064;50.890;5.424;2023-11-22T17:10:43;16.10;99.90
23769;DHT22;12064;50.890;5.424;2023-11-22T17:19:34;16.10;99.90
23769;DHT22;12064;50.890;5.424;2023-11-22T17:28:27;16.10;99.90
23769;DHT22;12064;50.890;5.424;2023-11-22T17:37:20;16.10;99.90
23769;DHT22;12064;50.890;5.424;2023-11-22T17:46:11;16.00;99.90
23769;DHT22;12064;50.890;5.424;2023-11-22T17:55:02;16.00;99.90
23769;DHT22;12064;50.890;5.424;2023-11-22T18:03:54;16.00;99.90
23769;DHT22;12064;50.890;5.424;2023-11-22T18:12:44;16.00;99.90
23769;DHT22;12064;50.890;5.424;2023-11-22T18:21:35;16.00;99.90
23769;DHT22;12064;50.890;5.424;2023-11-22T18:30:30;16.00;99.90
23769;DHT22;12064;50.890;5.424;2023-11-22T18:39:21;16.00;99.90
23769;DHT22;12064;50.890;5.424;2023-11-22T18:48:13;16.00;99.90
23769;DHT22;12064;50.890;5.424;2023-11-22T18:57:07;15.90;99.90
23769;DHT22;12064;50.890;5.424;2023-11-22T19:05:59;16.00;99.90
23769;DHT22;12064;50.890;5.424;2023-11-22T19:14:50;15.90;99.90
23769;DHT22;12064;50.890;5.424;2023-11-22T19:23:41;16.00;99.90
23769;DHT22;12064;50.890;5.424;2023-11-22T19:32:32;15.90;99.90
23769;DHT22;12064;50.890;5.424;2023-11-22T19:41:26;15.90;99.90
23769;DHT22;12064;50.890;5.424;2023-11-22T19:50:17;15.90;99.90
23769;DHT22;12064;50.890;5.424;2023-11-22T19:59:10;15.90;99.90
23769;DHT22;12064;50.890;5.424;2023-11-22T20:08:01;15.90;99.90
23769;DHT22;12064;50.890;5.424;2023-11-22T20:16:52;15.90;99.90
23769;DHT22;12064;50.890;5.424;2023-11-22T20:25:45;15.90;99.90
23769;DHT22;12064;50.890;5.424;2023-11-22T20:34:35;15.80;99.90
23769;DHT22;12064;50.890;5.424;2023-11-22T20:43:26;15.80;99.90
23769;DHT22;12064;50.890;5.424;2023-11-22T20:52:17;15.80;99.90
23769;DHT22;12064;50.890;5.424;2023-11-22T21:01:07;15.80;99.90
23769;DHT22;12064;50.890;5.424;2023-11-22T21:10:01;15.80;99.90
23769;DHT22;12064;50.890;5.424;2023-11-22T21:18:51;15.80;99.90
23769;DHT22;12064;50.890;5.424;2023-11-22T21:27:42;15.80;99.90
23769;DHT22;12064;50.890;5.424;2023-11-22T21:36:35;15.80;99.90
23769;DHT22;12064;50.890;5.424;2023-11-22T21:45:29;15.70;99.90
23769;DHT22;12064;50.890;5.424;2023-11-22T21:54:19;15.80;99.90
23769;DHT22;12064;50.890;5.424;2023-11-22T22:03:10;15.80;99.90
23769;DHT22;12064;50.890;5.424;2023-11-22T22:12:02;15.80;99.90
23769;DHT22;12064;50.890;5.424;2023-11-22T22:20:53;15.80;99.90
23769;DHT22;12064;50.890;5.424;2023-11-22T22:29:46;15.80;99.90
23769;DHT22;12064;50.890;5.424;2023-11-22T22:38:36;15.80;99.90
23769;DHT22;12064;50.890;5.424;2023-11-22T22:47:27;15.70;99.90
23769;DHT22;12064;50.890;5.424;2023-11-22T22:56:19;15.70;99.90
23769;DHT22;12064;50.890;5.424;2023-11-22T23:05:09;15.70;99.90
23769;DHT22;12064;50.890;5.424;2023-11-22T23:14:00;15.70;99.90
23769;DHT22;12064;50.890;5.424;2023-11-22T23:22:54;15.70;99.90
23769;DHT22;12064;50.890;5.424;2023-11-22T23:31:45;15.70;99.90
23769;DHT22;12064;50.890;5.424;2023-11-22T23:40:36;15.70;99.90
23769;DHT22;12064;50.890;5.424;2023-11-22T23:49:26;15.70;99.90
23769;DHT22;12064;50.890;5.424;2023-11-22T23:58:19;15.70;99.90
